createdAt,value
2023-04-06T00:04:43.296Z,99188.27
2023-04-06T00:09:45.796Z,99185.42
2023-04-06T00:14:47.463Z,99185.89
2023-04-06T00:19:49.263Z,99190.70
2023-04-06T00:24:51.083Z,99186.38
2023-04-06T00:29:52.819Z,99186.85
2023-04-06T00:34:54.444Z,99185.79
2023-04-06T00:39:56.803Z,99182.40
2023-04-06T00:45:00.362Z,99182.92
2023-04-06T00:50:02.424Z,99180.50
2023-04-06T00:55:04.988Z,99184.73
2023-04-06T01:00:08.011Z,99178.66
2023-04-06T01:05:11.420Z,99177.27
2023-04-06T01:10:26.505Z,99177.45
2023-04-06T01:15:34.879Z,99178.91
2023-04-06T01:20:38.060Z,99174.90
2023-04-06T01:25:39.999Z,99174.14
2023-04-06T01:30:43.784Z,99173.36
2023-04-06T01:35:57.667Z,99174.63
2023-04-06T01:40:59.714Z,99176.48
2023-04-06T01:46:05.551Z,99173.20
2023-04-06T01:51:12.630Z,99171.99
2023-04-06T01:56:21.348Z,99171.80
2023-04-06T02:01:34.241Z,99172.94
2023-04-06T02:06:36.555Z,99173.38
2023-04-06T02:11:38.707Z,99169.70
2023-04-06T02:16:41.282Z,99161.13
2023-04-06T02:21:43.553Z,99161.70
2023-04-06T02:26:45.857Z,99161.29
2023-04-06T02:31:47.663Z,99167.64
2023-04-06T02:36:49.516Z,99168.14
2023-04-06T02:41:51.428Z,99164.70
2023-04-06T02:46:56.970Z,99167.38
2023-04-06T02:52:01.060Z,99166.59
2023-04-06T02:57:07.241Z,99169.70
2023-04-06T03:02:14.041Z,99169.48
2023-04-06T03:07:16.128Z,99167.51
2023-04-06T03:12:18.926Z,99169.80
2023-04-06T03:17:39.780Z,99171.11
2023-04-06T03:22:43.918Z,99173.91
2023-04-06T03:27:47.750Z,99173.23
2023-04-06T03:32:52.098Z,99175.41
2023-04-06T03:37:55.686Z,99178.49
2023-04-06T03:42:57.869Z,99180.38
2023-04-06T03:47:59.950Z,99178.16
2023-04-06T03:53:04.174Z,99185.15
2023-04-06T03:58:06.467Z,99184.66
2023-04-06T04:07:11.557Z,99191.59
2023-04-06T04:12:13.648Z,99191.35
2023-04-06T04:17:15.759Z,99191.01
2023-04-06T04:22:17.602Z,99190.35
2023-04-06T04:27:19.384Z,99192.20
2023-04-06T04:32:24.101Z,99195.19
2023-04-06T04:37:26.536Z,99192.39
2023-04-06T04:42:30.481Z,99192.39
2023-04-06T04:47:33.607Z,99188.58
2023-04-06T04:52:36.014Z,99189.61
2023-04-06T04:58:03.809Z,99192.61
2023-04-06T05:03:26.066Z,99189.59
2023-04-06T05:08:32.939Z,99186.80
2023-04-06T05:13:35.952Z,99185.45
2023-04-06T05:18:42.636Z,99187.61
2023-04-06T05:23:45.081Z,99191.35
2023-04-06T05:28:47.098Z,99190.74
2023-04-06T05:33:49.547Z,99185.32
2023-04-06T05:38:58.179Z,99177.58
2023-04-06T05:44:29.167Z,99178.74
2023-04-06T05:49:38.062Z,99174.71
2023-04-06T05:54:42.127Z,99172.34
2023-04-06T05:59:44.075Z,99179.50
2023-04-06T06:04:47.126Z,99178.67
2023-04-06T06:09:49.282Z,99179.10
2023-04-06T06:15:01.762Z,99172.70
2023-04-06T06:20:04.783Z,99172.63
2023-04-06T06:25:06.964Z,99170.43
2023-04-06T06:30:11.802Z,99169.27
2023-04-06T06:35:16.102Z,99165.91
2023-04-06T06:40:19.017Z,99167.20
2023-04-06T06:45:22.681Z,99166.58
2023-04-06T06:50:24.966Z,99163.45
2023-04-06T06:55:27.933Z,99163.79
2023-04-06T07:00:29.744Z,99166.73
2023-04-06T07:05:32.445Z,99164.04
2023-04-06T07:10:34.465Z,99165.80
2023-04-06T07:15:36.157Z,99167.38
2023-04-06T07:20:37.802Z,99168.78
2023-04-06T07:25:40.035Z,99167.52
2023-04-06T07:30:41.733Z,99174.62
2023-04-06T07:35:44.614Z,99175.72
2023-04-06T07:40:47.333Z,99182.65
2023-04-06T07:45:49.575Z,99187.05
2023-04-06T07:50:52.116Z,99182.33
2023-04-06T07:55:54.800Z,99180.99
2023-04-06T08:00:56.605Z,99174.22
2023-04-06T08:05:58.446Z,99169.77
2023-04-06T08:11:02.038Z,99172.75
2023-04-06T08:16:04.785Z,99164.97
2023-04-06T08:21:06.576Z,99165.23
2023-04-06T08:26:08.381Z,99163.83
2023-04-06T08:31:10.425Z,99156.47
2023-04-06T08:36:14.153Z,99152.05
2023-04-06T08:41:20.157Z,99149.63
2023-04-06T08:46:22.008Z,99146.52
2023-04-06T08:51:30.121Z,99144.44
2023-04-06T08:56:32.090Z,99138.20
2023-04-06T09:01:39.664Z,99139.86
2023-04-06T09:06:42.060Z,99136.50
2023-04-06T09:11:47.382Z,99133.60
2023-04-06T09:16:49.145Z,99127.20
2023-04-06T09:21:50.932Z,99128.71
2023-04-06T09:26:52.647Z,99129.16
2023-04-06T09:32:06.378Z,99126.27
2023-04-06T09:37:19.194Z,99118.33
2023-04-06T09:42:26.683Z,99116.66
2023-04-06T09:47:29.908Z,99110.52
2023-04-06T09:52:41.487Z,99108.43
2023-04-06T09:57:53.883Z,99102.81
2023-04-06T10:02:59.382Z,99095.59
2023-04-06T10:08:07.319Z,99096.23
2023-04-06T10:13:11.372Z,99090.89
2023-04-06T10:18:14.128Z,99083.40
2023-04-06T10:23:35.901Z,99073.08
2023-04-06T10:28:37.859Z,99072.38
2023-04-06T10:33:39.732Z,99068.69
2023-04-06T10:38:42.997Z,99070.48
2023-04-06T10:43:45.896Z,99059.87
2023-04-06T10:48:51.067Z,99059.80
2023-04-06T10:53:54.869Z,99062.70
2023-04-06T10:58:59.659Z,99057.27
2023-04-06T11:04:01.694Z,99056.21
2023-04-06T11:09:04.936Z,99057.33
2023-04-06T11:14:06.605Z,99048.45
2023-04-06T11:19:08.842Z,99049.25
2023-04-06T11:24:13.345Z,99055.52
2023-04-06T11:29:18.325Z,99047.02
2023-04-06T11:34:22.176Z,99053.52
2023-04-06T11:39:28.497Z,99048.33
2023-04-06T11:44:32.519Z,99051.48
2023-04-06T11:49:38.332Z,99045.38
2023-04-06T11:54:40.303Z,99042.36
2023-04-06T11:59:42.034Z,99036.94
2023-04-06T12:04:43.781Z,99028.38
2023-04-06T12:09:45.760Z,99020.44
2023-04-06T12:14:47.435Z,99010.00
2023-04-06T12:19:49.064Z,99017.48
2023-04-06T12:24:50.855Z,99016.55
2023-04-06T12:29:52.637Z,99015.91
2023-04-06T12:34:54.665Z,99017.86
2023-04-06T12:39:56.597Z,99008.97
2023-04-06T12:44:58.372Z,99005.50
2023-04-06T12:50:00.636Z,99002.88
2023-04-06T12:55:07.045Z,98996.14
2023-04-06T13:00:09.981Z,98999.55
2023-04-06T13:05:12.040Z,98990.90
2023-04-06T13:10:13.764Z,98984.73
2023-04-06T13:15:16.159Z,98981.34
2023-04-06T13:20:18.644Z,98981.75
2023-04-06T13:25:21.104Z,98973.19
2023-04-06T13:30:24.005Z,98972.66
2023-04-06T13:35:25.981Z,98970.25
2023-04-06T13:40:27.675Z,98973.63
2023-04-06T13:45:29.493Z,98967.48
2023-04-06T13:50:31.551Z,98963.04
2023-04-06T13:55:33.318Z,98966.73
2023-04-06T14:00:35.994Z,98965.82
2023-04-06T14:05:37.796Z,98966.33
2023-04-06T14:10:45.753Z,98966.60
2023-04-06T14:15:48.763Z,98960.89
2023-04-06T14:20:57.208Z,98960.66
2023-04-06T14:26:06.475Z,98964.35
2023-04-06T14:31:13.136Z,98958.99
2023-04-06T14:36:14.985Z,98957.41
2023-04-06T14:41:18.212Z,98956.52
2023-04-06T14:46:19.983Z,98954.99
2023-04-06T14:51:22.316Z,98951.84
2023-04-06T14:56:24.800Z,98953.95
2023-04-06T15:01:26.563Z,98952.63
2023-04-06T15:06:28.330Z,98953.89
2023-04-06T15:11:29.978Z,98954.45
2023-04-06T15:16:33.899Z,98957.62
2023-04-06T15:21:36.163Z,98953.58
2023-04-06T15:26:38.063Z,98950.48
2023-04-06T15:31:41.023Z,98952.48
2023-04-06T15:36:44.590Z,98944.45
2023-04-06T15:41:46.323Z,98946.38
2023-04-06T15:46:47.923Z,98949.20
2023-04-06T15:51:51.669Z,98950.96
2023-04-06T15:56:53.456Z,98950.23
2023-04-06T16:01:55.141Z,98952.61
2023-04-06T16:06:56.857Z,98954.73
2023-04-06T16:11:58.580Z,98956.05
2023-04-06T16:17:00.420Z,98953.65
2023-04-06T16:22:02.642Z,98954.35
2023-04-06T16:27:04.971Z,98950.05
2023-04-06T16:32:06.977Z,98945.20
2023-04-06T16:37:08.880Z,98947.75
2023-04-06T16:42:10.886Z,98950.75
2023-04-06T16:47:12.587Z,98945.19
2023-04-06T16:52:14.426Z,98951.44
2023-04-06T16:57:16.681Z,98958.21
2023-04-06T17:02:18.481Z,98961.79
2023-04-06T17:07:25.530Z,98960.09
2023-04-06T17:12:27.300Z,98968.44
2023-04-06T17:17:29.124Z,98977.45
2023-04-06T17:22:31.401Z,98983.47
2023-04-06T17:27:33.678Z,98984.46
2023-04-06T17:32:35.738Z,98986.86
2023-04-06T17:37:37.968Z,98990.70
2023-04-06T17:42:39.662Z,98997.83
2023-04-06T17:47:41.423Z,98997.79
2023-04-06T17:52:43.048Z,98997.14
2023-04-06T17:57:48.005Z,99007.44
2023-04-06T18:02:54.406Z,99015.81
2023-04-06T18:07:57.101Z,99016.08
2023-04-06T18:13:01.378Z,99015.17
2023-04-06T18:18:03.289Z,99010.98
2023-04-06T18:23:05.114Z,99011.36
2023-04-06T18:28:07.591Z,99008.72
2023-04-06T18:33:09.264Z,99008.26
2023-04-06T18:38:11.195Z,99004.02
2023-04-06T18:43:13.083Z,99007.42
2023-04-06T18:48:14.819Z,99008.05
2023-04-06T18:53:16.767Z,99008.52
2023-04-06T18:58:18.526Z,99009.02
2023-04-06T19:03:22.314Z,99008.23
2023-04-06T19:08:24.285Z,99005.09
2023-04-06T19:13:28.682Z,98998.02
2023-04-06T19:18:30.823Z,98998.52
2023-04-06T19:23:33.950Z,98998.27
2023-04-06T19:28:36.868Z,98998.15
2023-04-06T19:33:39.359Z,98994.42
2023-04-06T19:38:41.423Z,98989.19
2023-04-06T19:43:43.360Z,98981.67
2023-04-06T19:48:45.200Z,98974.13
2023-04-06T19:53:47.939Z,98970.11
2023-04-06T19:58:49.693Z,98968.11
2023-04-06T20:03:51.660Z,98964.27
2023-04-06T20:08:54.711Z,98958.70
2023-04-06T20:13:56.542Z,98957.46
2023-04-06T20:18:58.200Z,98961.06
2023-04-06T20:24:00.056Z,98963.95
2023-04-06T20:29:01.758Z,98966.20
2023-04-06T20:34:03.471Z,98962.66
2023-04-06T20:39:05.196Z,98957.64
2023-04-06T20:44:07.159Z,98961.27
2023-04-06T20:49:08.834Z,98955.77
2023-04-06T20:54:10.705Z,98951.13
2023-04-06T20:59:12.513Z,98950.70
2023-04-06T21:04:14.350Z,98943.13
2023-04-06T21:09:20.013Z,98940.66
2023-04-06T21:14:24.169Z,98930.73
2023-04-06T21:19:29.460Z,98932.80
2023-04-06T21:24:31.269Z,98929.88
2023-04-06T21:29:33.228Z,98932.59
2023-04-06T21:34:34.982Z,98928.02
2023-04-06T21:39:37.806Z,98923.98
2023-04-06T21:44:41.002Z,98924.15
2023-04-06T21:49:42.644Z,98920.85
2023-04-06T21:54:46.028Z,98915.73
2023-04-06T21:59:47.871Z,98908.51
2023-04-06T22:39:45.902Z,98873.72
2023-04-06T22:44:47.637Z,98867.52
2023-04-06T22:49:49.258Z,98865.14
2023-04-06T22:54:50.926Z,98862.48
2023-04-06T22:59:52.721Z,98855.98
2023-04-06T23:04:54.407Z,98856.39
2023-04-06T23:09:57.502Z,98850.24
2023-04-06T23:15:09.536Z,98847.60
2023-04-06T23:20:11.518Z,98846.35
2023-04-06T23:25:13.332Z,98842.57
2023-04-06T23:30:15.771Z,98839.69
2023-04-06T23:35:17.956Z,98831.58
2023-04-06T23:40:24.941Z,98830.70
2023-04-06T23:45:27.557Z,98830.66
2023-04-06T23:50:37.875Z,98825.03
2023-04-06T23:55:39.608Z,98816.89
